CheckWX is a tool to help pilots better visualize weather data.  It is not intended as a substitute for an official pre-flight weather briefing.

18:32:30 UTC

HSOB METAR
El Obeid Airport
Al-Ubayyid, Sudan
Current

8 hours ago

HSOB 221100Z 02007KT CAVOK 31/M01 Q1013
Observed
Feb-22 @ 11:00 UTC
Wind
  • 020° at 7 KTS
Visibility
10,000+ meters
Flight Rules
VFR
Cloud Levels
  • Clear skies
Temperature
31°C / 88°F
Dewpoint
-1°C / 30°F
Humidity
13%
Altimeter
29.91" Hg
Pressure
1012.92 hPa
Previous

9 hours ago

HSOB 221000Z 03010KT CAVOK 29/M02 Q1014
Observed
Feb-22 @ 10:00 UTC
Wind
  • 030° at 10 KTS
Visibility
10,000+ meters
Flight Rules
VFR
Cloud Levels
  • Clear skies
Temperature
29°C / 84°F
Dewpoint
-2°C / 28°F
Humidity
13%
Altimeter
29.94" Hg
Pressure
1013.92 hPa
Previous

11 hours ago

HSOB 220800Z 02012KT CAVOK 26/M02 Q1016
Observed
Feb-22 @ 08:00 UTC
Wind
  • 020° at 12 KTS
Visibility
10,000+ meters
Flight Rules
VFR
Cloud Levels
  • Clear skies
Temperature
26°C / 79°F
Dewpoint
-2°C / 28°F
Humidity
16%
Altimeter
30" Hg
Pressure
1015.92 hPa